sensor_id;sensor_type;location;lat;lon;timestamp;pressure;altitude;pressure_sealevel;temperature;humidity
71299;BME280;59083;47.974;21.722;2023-06-10T00:02:21;99984.63;;;16.32;100.00
71299;BME280;59083;47.974;21.722;2023-06-10T00:05:22;99982.97;;;16.31;100.00
71299;BME280;59083;47.974;21.722;2023-06-10T00:08:23;99981.94;;;16.32;100.00
71299;BME280;59083;47.974;21.722;2023-06-10T00:11:25;99981.69;;;16.33;100.00
71299;BME280;59083;47.974;21.722;2023-06-10T00:14:27;99985.44;;;16.32;100.00
71299;BME280;59083;47.974;21.722;2023-06-10T00:17:28;99985.66;;;16.31;100.00
71299;BME280;59083;47.974;21.722;2023-06-10T00:20:30;99983.44;;;16.28;100.00
71299;BME280;59083;47.974;21.722;2023-06-10T00:23:32;99979.25;;;16.32;100.00
71299;BME280;59083;47.974;21.722;2023-06-10T00:26:39;99987.78;;;16.29;100.00
71299;BME280;59083;47.974;21.722;2023-06-10T00:29:41;99978.19;;;16.33;100.00
71299;BME280;59083;47.974;21.722;2023-06-10T00:32:42;99984.03;;;16.30;100.00
71299;BME280;59083;47.974;21.722;2023-06-10T00:35:43;99978.06;;;16.28;100.00
71299;BME280;59083;47.974;21.722;2023-06-10T00:38:45;99978.53;;;16.25;100.00
71299;BME280;59083;47.974;21.722;2023-06-10T00:41:46;99980.66;;;16.23;100.00
71299;BME280;59083;47.974;21.722;2023-06-10T00:44:47;99973.62;;;16.22;100.00
71299;BME280;59083;47.974;21.722;2023-06-10T00:47:48;99976.78;;;16.19;100.00
71299;BME280;59083;47.974;21.722;2023-06-10T00:50:50;99970.22;;;16.15;100.00
71299;BME280;59083;47.974;21.722;2023-06-10T00:53:52;99970.13;;;16.09;100.00
71299;BME280;59083;47.974;21.722;2023-06-10T00:56:54;99974.34;;;16.05;100.00
71299;BME280;59083;47.974;21.722;2023-06-10T00:59:56;99971.16;;;16.08;100.00
71299;BME280;59083;47.974;21.722;2023-06-10T01:02:58;99977.25;;;16.04;100.00
71299;BME280;59083;47.974;21.722;2023-06-10T01:16:25;99964.97;;;15.96;100.00
71299;BME280;59083;47.974;21.722;2023-06-10T01:19:27;99964.97;;;15.96;100.00
71299;BME280;59083;47.974;21.722;2023-06-10T01:22:30;99964.97;;;15.96;100.00
71299;BME280;59083;47.974;21.722;2023-06-10T01:25:39;99964.97;;;15.96;100.00
71299;BME280;59083;47.974;21.722;2023-06-10T01:28:47;99967.09;;;15.94;100.00
71299;BME280;59083;47.974;21.722;2023-06-10T01:32:08;99970.56;;;15.95;100.00
71299;BME280;59083;47.974;21.722;2023-06-10T01:35:13;99971.63;;;15.94;100.00
71299;BME280;59083;47.974;21.722;2023-06-10T01:38:17;99970.09;;;15.86;100.00
71299;BME280;59083;47.974;21.722;2023-06-10T01:41:21;99977.56;;;15.84;100.00
71299;BME280;59083;47.974;21.722;2023-06-10T01:44:23;99971.63;;;15.82;100.00
71299;BME280;59083;47.974;21.722;2023-06-10T01:47:24;99974.31;;;15.82;100.00
71299;BME280;59083;47.974;21.722;2023-06-10T01:50:26;99974.31;;;15.82;100.00
71299;BME280;59083;47.974;21.722;2023-06-10T01:53:27;99974.31;;;15.82;100.00
71299;BME280;59083;47.974;21.722;2023-06-10T01:56:28;99972.19;;;15.84;100.00
71299;BME280;59083;47.974;21.722;2023-06-10T01:59:29;99979.69;;;15.82;100.00
71299;BME280;59083;47.974;21.722;2023-06-10T02:02:31;99987.75;;;15.82;100.00
71299;BME280;59083;47.974;21.722;2023-06-10T02:05:33;99989.12;;;15.85;100.00
71299;BME280;59083;47.974;21.722;2023-06-10T02:08:34;99982.72;;;15.86;100.00
71299;BME280;59083;47.974;21.722;2023-06-10T02:11:36;99989.97;;;15.85;100.00
71299;BME280;59083;47.974;21.722;2023-06-10T02:14:37;99980.63;;;15.88;100.00
71299;BME280;59083;47.974;21.722;2023-06-10T02:17:39;99982.94;;;15.84;100.00
71299;BME280;59083;47.974;21.722;2023-06-10T02:20:40;99986.22;;;15.86;100.00
71299;BME280;59083;47.974;21.722;2023-06-10T02:23:41;99979.81;;;15.87;100.00
71299;BME280;59083;47.974;21.722;2023-06-10T02:26:42;99999.78;;;15.91;100.00
71299;BME280;59083;47.974;21.722;2023-06-10T02:29:44;99986.94;;;15.93;100.00
71299;BME280;59083;47.974;21.722;2023-06-10T02:32:45;99994.28;;;15.86;100.00
71299;BME280;59083;47.974;21.722;2023-06-10T02:35:49;99999.78;;;15.91;100.00
71299;BME280;59083;47.974;21.722;2023-06-10T02:38:51;100002.16;;;15.99;100.00
71299;BME280;59083;47.974;21.722;2023-06-10T02:41:52;100004.84;;;15.99;100.00
71299;BME280;59083;47.974;21.722;2023-06-10T02:44:55;99998.84;;;15.97;100.00
71299;BME280;59083;47.974;21.722;2023-06-10T02:47:57;99994.66;;;16.01;100.00
71299;BME280;59083;47.974;21.722;2023-06-10T02:50:58;99997.00;;;16.09;100.00
71299;BME280;59083;47.974;21.722;2023-06-10T02:54:00;99986.97;;;16.17;100.00
71299;BME280;59083;47.974;21.722;2023-06-10T02:57:02;99994.44;;;16.15;100.00
71299;BME280;59083;47.974;21.722;2023-06-10T03:00:04;100000.16;;;16.18;100.00
71299;BME280;59083;47.974;21.722;2023-06-10T03:03:10;99997.25;;;16.20;100.00
71299;BME280;59083;47.974;21.722;2023-06-10T03:06:13;99996.91;;;16.16;100.00
71299;BME280;59083;47.974;21.722;2023-06-10T03:09:15;99990.81;;;16.21;100.00
71299;BME280;59083;47.974;21.722;2023-06-10T03:12:17;99996.78;;;16.11;100.00
71299;BME280;59083;47.974;21.722;2023-06-10T03:15:18;99994.19;;;16.04;100.00
71299;BME280;59083;47.974;21.722;2023-06-10T03:18:27;99994.66;;;16.01;100.00
71299;BME280;59083;47.974;21.722;2023-06-10T03:21:28;99998.84;;;15.97;100.00
71299;BME280;59083;47.974;21.722;2023-06-10T03:24:30;99997.59;;;16.00;100.00
71299;BME280;59083;47.974;21.722;2023-06-10T03:27:32;99993.37;;;16.04;100.00
71299;BME280;59083;47.974;21.722;2023-06-10T03:30:34;99986.47;;;16.08;100.00
71299;BME280;59083;47.974;21.722;2023-06-10T03:33:35;99984.59;;;16.08;100.00
71299;BME280;59083;47.974;21.722;2023-06-10T03:36:37;99991.16;;;16.12;100.00
71299;BME280;59083;47.974;21.722;2023-06-10T03:39:40;100002.16;;;16.11;100.00
71299;BME280;59083;47.974;21.722;2023-06-10T03:42:41;99996.19;;;16.21;100.00
71299;BME280;59083;47.974;21.722;2023-06-10T03:45:45;99999.47;;;16.23;100.00
71299;BME280;59083;47.974;21.722;2023-06-10T03:48:47;100003.09;;;16.17;100.00
71299;BME280;59083;47.974;21.722;2023-06-10T03:51:49;100005.53;;;16.18;100.00
71299;BME280;59083;47.974;21.722;2023-06-10T03:54:51;99997.25;;;16.20;100.00
71299;BME280;59083;47.974;21.722;2023-06-10T03:57:52;100000.63;;;16.27;100.00
71299;BME280;59083;47.974;21.722;2023-06-10T04:00:54;100001.69;;;16.26;100.00
71299;BME280;59083;47.974;21.722;2023-06-10T04:04:00;100013.59;;;16.30;100.00
71299;BME280;59083;47.974;21.722;2023-06-10T04:07:02;100018.41;;;16.28;100.00
71299;BME280;59083;47.974;21.722;2023-06-10T04:10:04;100004.97;;;16.28;100.00
71299;BME280;59083;47.974;21.722;2023-06-10T04:13:06;100008.38;;;16.23;100.00
71299;BME280;59083;47.974;21.722;2023-06-10T04:16:08;100004.97;;;16.28;100.00
71299;BME280;59083;47.974;21.722;2023-06-10T04:19:09;100008.94;;;16.37;100.00
71299;BME280;59083;47.974;21.722;2023-06-10T04:22:10;100010.78;;;16.48;100.00
71299;BME280;59083;47.974;21.722;2023-06-10T04:25:11;100008.22;;;16.53;100.00
71299;BME280;59083;47.974;21.722;2023-06-10T04:28:13;100009.16;;;16.70;100.00
71299;BME280;59083;47.974;21.722;2023-06-10T04:31:15;100011.03;;;16.70;100.00
71299;BME280;59083;47.974;21.722;2023-06-10T04:34:17;100013.59;;;16.76;100.00
71299;BME280;59083;47.974;21.722;2023-06-10T04:37:18;100011.28;;;16.80;100.00
71299;BME280;59083;47.974;21.722;2023-06-10T04:40:21;100011.72;;;16.88;100.00
71299;BME280;59083;47.974;21.722;2023-06-10T04:43:22;100016.63;;;16.91;100.00
71299;BME280;59083;47.974;21.722;2023-06-10T04:46:23;100016.50;;;16.86;100.00
71299;BME280;59083;47.974;21.722;2023-06-10T04:49:25;100013.75;;;17.10;100.00
71299;BME280;59083;47.974;21.722;2023-06-10T04:52:26;100013.09;;;17.03;100.00
71299;BME280;59083;47.974;21.722;2023-06-10T04:55:28;100016.53;;;17.15;100.00
71299;BME280;59083;47.974;21.722;2023-06-10T04:58:30;100002.16;;;17.09;100.00
71299;BME280;59083;47.974;21.722;2023-06-10T05:01:31;100017.50;;;17.09;100.00
71299;BME280;59083;47.974;21.722;2023-06-10T05:04:32;100014.25;;;17.07;100.00
71299;BME280;59083;47.974;21.722;2023-06-10T05:07:33;100022.88;;;17.09;100.00
71299;BME280;59083;47.974;21.722;2023-06-10T05:10:35;100017.22;;;17.22;100.00
71299;BME280;59083;47.974;21.722;2023-06-10T05:13:36;100015.12;;;17.24;100.00
71299;BME280;59083;47.974;21.722;2023-06-10T05:16:37;100011.56;;;17.35;100.00
71299;BME280;59083;47.974;21.722;2023-06-10T05:19:39;100008.28;;;17.33;100.00
71299;BME280;59083;47.974;21.722;2023-06-10T05:22:40;100010.59;;;17.41;100.00
71299;BME280;59083;47.974;21.722;2023-06-10T05:25:41;100010.19;;;17.49;100.00
71299;BME280;59083;47.974;21.722;2023-06-10T05:28:43;100015.50;;;17.44;100.00
71299;BME280;59083;47.974;21.722;2023-06-10T05:31:44;100011.28;;;17.48;100.00
71299;BME280;59083;47.974;21.722;2023-06-10T05:34:46;100023.66;;;17.49;100.00
71299;BME280;59083;47.974;21.722;2023-06-10T05:37:47;100015.69;;;17.54;100.00
71299;BME280;59083;47.974;21.722;2023-06-10T05:40:49;100019.25;;;17.43;100.00
71299;BME280;59083;47.974;21.722;2023-06-10T05:43:50;100016.19;;;17.51;100.00
71299;BME280;59083;47.974;21.722;2023-06-10T05:46:51;100022.69;;;17.67;100.00
71299;BME280;59083;47.974;21.722;2023-06-10T05:49:52;100028.41;;;17.70;100.00
71299;BME280;59083;47.974;21.722;2023-06-10T05:52:54;100025.91;;;17.81;100.00
71299;BME280;59083;47.974;21.722;2023-06-10T05:55:55;100020.66;;;17.91;100.00
71299;BME280;59083;47.974;21.722;2023-06-10T05:58:58;100020.19;;;18.10;100.00
71299;BME280;59083;47.974;21.722;2023-06-10T06:01:59;100016.44;;;18.28;100.00
71299;BME280;59083;47.974;21.722;2023-06-10T06:05:00;100017.97;;;18.24;100.00
71299;BME280;59083;47.974;21.722;2023-06-10T06:08:02;100015.34;;;18.29;100.00
71299;BME280;59083;47.974;21.722;2023-06-10T06:11:03;100019.38;;;18.27;100.00
71299;BME280;59083;47.974;21.722;2023-06-10T06:14:04;100022.47;;;18.35;100.00
71299;BME280;59083;47.974;21.722;2023-06-10T06:17:06;100015.66;;;18.49;100.00
71299;BME280;59083;47.974;21.722;2023-06-10T06:20:07;100024.41;;;18.73;100.00
71299;BME280;59083;47.974;21.722;2023-06-10T06:23:09;100018.62;;;18.86;100.00
71299;BME280;59083;47.974;21.722;2023-06-10T06:26:11;100012.59;;;19.01;100.00
71299;BME280;59083;47.974;21.722;2023-06-10T06:29:13;100018.00;;;19.76;100.00
71299;BME280;59083;47.974;21.722;2023-06-10T06:32:14;100015.53;;;20.34;100.00
71299;BME280;59083;47.974;21.722;2023-06-10T06:35:15;100021.13;;;20.59;100.00
71299;BME280;59083;47.974;21.722;2023-06-10T06:38:16;100021.28;;;20.84;100.00
71299;BME280;59083;47.974;21.722;2023-06-10T06:41:18;100018.56;;;20.84;100.00
71299;BME280;59083;47.974;21.722;2023-06-10T06:44:20;100013.81;;;21.12;100.00
71299;BME280;59083;47.974;21.722;2023-06-10T06:47:25;100020.13;;;21.37;100.00
71299;BME280;59083;47.974;21.722;2023-06-10T06:50:27;100011.81;;;21.74;100.00
71299;BME280;59083;47.974;21.722;2023-06-10T06:53:29;100018.31;;;21.89;98.69
71299;BME280;59083;47.974;21.722;2023-06-10T06:56:30;100021.59;;;21.80;98.90
71299;BME280;59083;47.974;21.722;2023-06-10T06:59:31;100019.97;;;21.95;99.02
71299;BME280;59083;47.974;21.722;2023-06-10T07:02:32;100021.59;;;21.91;99.76
71299;BME280;59083;47.974;21.722;2023-06-10T07:05:34;100012.31;;;21.56;98.24
71299;BME280;59083;47.974;21.722;2023-06-10T07:08:35;100017.75;;;21.61;98.51
71299;BME280;59083;47.974;21.722;2023-06-10T07:11:36;100016.09;;;21.50;99.42
71299;BME280;59083;47.974;21.722;2023-06-10T07:14:37;100018.81;;;21.50;98.70
71299;BME280;59083;47.974;21.722;2023-06-10T07:17:39;100019.31;;;21.42;97.36
71299;BME280;59083;47.974;21.722;2023-06-10T07:20:40;100025.62;;;21.63;97.25
71299;BME280;59083;47.974;21.722;2023-06-10T07:23:43;100026.78;;;21.97;95.47
71299;BME280;59083;47.974;21.722;2023-06-10T07:26:44;100022.72;;;22.15;96.08
71299;BME280;59083;47.974;21.722;2023-06-10T07:29:45;100023.78;;;22.19;92.14
71299;BME280;59083;47.974;21.722;2023-06-10T07:32:46;100031.94;;;22.14;93.33
71299;BME280;59083;47.974;21.722;2023-06-10T07:35:47;100025.94;;;22.22;93.13
71299;BME280;59083;47.974;21.722;2023-06-10T07:38:48;100028.69;;;22.02;94.18
71299;BME280;59083;47.974;21.722;2023-06-10T07:41:51;100029.47;;;22.43;92.38
71299;BME280;59083;47.974;21.722;2023-06-10T07:44:54;100026.44;;;22.44;91.04
71299;BME280;59083;47.974;21.722;2023-06-10T07:47:56;100023.19;;;22.52;89.27
71299;BME280;59083;47.974;21.722;2023-06-10T07:50:57;100023.22;;;22.42;85.81
71299;BME280;59083;47.974;21.722;2023-06-10T07:53:58;100026.38;;;22.85;88.17
71299;BME280;59083;47.974;21.722;2023-06-10T07:56:59;100031.78;;;23.59;84.30
71299;BME280;59083;47.974;21.722;2023-06-10T08:00:00;100025.81;;;23.96;80.69
71299;BME280;59083;47.974;21.722;2023-06-10T08:03:13;100029.94;;;24.80;78.73
71299;BME280;59083;47.974;21.722;2023-06-10T08:06:14;100029.03;;;24.90;77.07
71299;BME280;59083;47.974;21.722;2023-06-10T08:09:17;100017.56;;;25.91;70.39
71299;BME280;59083;47.974;21.722;2023-06-10T08:12:19;100018.12;;;27.35;66.75
71299;BME280;59083;47.974;21.722;2023-06-10T08:15:21;100020.97;;;27.44;65.87
71299;BME280;59083;47.974;21.722;2023-06-10T08:18:22;100024.59;;;28.11;60.85
71299;BME280;59083;47.974;21.722;2023-06-10T08:21:23;100021.88;;;27.89;63.12
71299;BME280;59083;47.974;21.722;2023-06-10T08:24:25;100019.00;;;26.95;67.29
71299;BME280;59083;47.974;21.722;2023-06-10T08:27:26;100021.00;;;26.62;68.07
71299;BME280;59083;47.974;21.722;2023-06-10T08:30:27;100024.25;;;26.78;66.72
71299;BME280;59083;47.974;21.722;2023-06-10T08:33:28;100014.84;;;26.70;67.57
71299;BME280;59083;47.974;21.722;2023-06-10T08:36:30;100017.47;;;25.22;72.98
71299;BME280;59083;47.974;21.722;2023-06-10T08:39:31;100013.53;;;24.33;76.47
71299;BME280;59083;47.974;21.722;2023-06-10T08:45:42;100014.56;;;24.94;70.81
71299;BME280;59083;47.974;21.722;2023-06-10T08:48:51;100009.81;;;24.23;74.37
71299;BME280;59083;47.974;21.722;2023-06-10T08:51:59;100007.13;;;25.00;72.26
71299;BME280;59083;47.974;21.722;2023-06-10T08:55:11;99996.78;;;26.55;67.09
71299;BME280;59083;47.974;21.722;2023-06-10T08:58:13;99997.50;;;27.16;63.31
71299;BME280;59083;47.974;21.722;2023-06-10T09:01:15;100005.22;;;27.85;60.68
71299;BME280;59083;47.974;21.722;2023-06-10T09:04:18;99998.69;;;27.23;59.84
71299;BME280;59083;47.974;21.722;2023-06-10T09:07:21;99992.63;;;27.26;61.38
71299;BME280;59083;47.974;21.722;2023-06-10T09:10:22;99985.06;;;27.09;62.81
71299;BME280;59083;47.974;21.722;2023-06-10T09:13:24;99990.72;;;27.63;60.63
71299;BME280;59083;47.974;21.722;2023-06-10T09:16:25;99983.66;;;27.34;59.76
71299;BME280;59083;47.974;21.722;2023-06-10T09:19:26;99987.31;;;25.69;66.59
71299;BME280;59083;47.974;21.722;2023-06-10T09:22:29;99986.88;;;26.13;66.39
71299;BME280;59083;47.974;21.722;2023-06-10T09:25:36;99974.78;;;26.33;65.22
71299;BME280;59083;47.974;21.722;2023-06-10T09:28:43;99969.87;;;26.16;66.81
71299;BME280;59083;47.974;21.722;2023-06-10T09:31:45;99968.47;;;26.19;65.55
71299;BME280;59083;47.974;21.722;2023-06-10T09:34:47;99963.84;;;26.33;65.18
71299;BME280;59083;47.974;21.722;2023-06-10T09:37:53;99960.72;;;25.93;65.67
71299;BME280;59083;47.974;21.722;2023-06-10T09:40:54;99965.34;;;25.79;64.71
71299;BME280;59083;47.974;21.722;2023-06-10T09:43:56;99960.91;;;25.46;66.17
71299;BME280;59083;47.974;21.722;2023-06-10T09:46:57;99957.97;;;25.93;63.75
71299;BME280;59083;47.974;21.722;2023-06-10T09:50:00;99952.84;;;26.06;65.07
71299;BME280;59083;47.974;21.722;2023-06-10T09:53:02;99943.84;;;25.54;68.62
71299;BME280;59083;47.974;21.722;2023-06-10T09:56:07;99950.41;;;25.90;66.35
71299;BME280;59083;47.974;21.722;2023-06-10T09:59:08;99948.84;;;26.17;64.66
71299;BME280;59083;47.974;21.722;2023-06-10T10:02:16;99958.69;;;25.10;68.05
71299;BME280;59083;47.974;21.722;2023-06-10T10:05:19;99940.69;;;25.47;68.22
71299;BME280;59083;47.974;21.722;2023-06-10T10:08:21;99944.84;;;25.26;71.28
71299;BME280;59083;47.974;21.722;2023-06-10T10:11:23;99935.34;;;24.57;70.01
71299;BME280;59083;47.974;21.722;2023-06-10T10:14:28;99936.44;;;24.56;68.47
71299;BME280;59083;47.974;21.722;2023-06-10T10:17:34;99938.56;;;25.06;68.01
71299;BME280;59083;47.974;21.722;2023-06-10T10:20:43;99934.78;;;25.02;66.97
71299;BME280;59083;47.974;21.722;2023-06-10T10:26:53;99928.22;;;25.41;66.08
71299;BME280;59083;47.974;21.722;2023-06-10T10:29:59;99937.25;;;25.60;65.17
71299;BME280;59083;47.974;21.722;2023-06-10T10:33:05;99935.25;;;26.12;64.78
71299;BME280;59083;47.974;21.722;2023-06-10T10:36:08;99917.31;;;26.65;60.46
71299;BME280;59083;47.974;21.722;2023-06-10T10:39:10;99927.75;;;26.04;62.67
71299;BME280;59083;47.974;21.722;2023-06-10T10:42:12;99922.13;;;26.14;60.53
71299;BME280;59083;47.974;21.722;2023-06-10T10:45:14;99917.06;;;26.21;62.20
71299;BME280;59083;47.974;21.722;2023-06-10T10:48:16;99911.47;;;25.99;62.38
71299;BME280;59083;47.974;21.722;2023-06-10T10:51:17;99909.44;;;25.90;62.88
71299;BME280;59083;47.974;21.722;2023-06-10T10:54:28;99899.38;;;25.72;65.48
71299;BME280;59083;47.974;21.722;2023-06-10T10:57:29;99904.28;;;25.38;64.43
71299;BME280;59083;47.974;21.722;2023-06-10T11:00:35;99898.78;;;25.05;66.22
71299;BME280;59083;47.974;21.722;2023-06-10T11:03:42;99896.91;;;25.20;64.47
71299;BME280;59083;47.974;21.722;2023-06-10T11:06:52;99906.19;;;25.19;63.29
71299;BME280;59083;47.974;21.722;2023-06-10T11:10:11;99903.53;;;25.14;63.57
71299;BME280;59083;47.974;21.722;2023-06-10T11:13:14;99896.47;;;25.12;61.46
71299;BME280;59083;47.974;21.722;2023-06-10T11:16:19;99895.66;;;24.93;62.85
71299;BME280;59083;47.974;21.722;2023-06-10T11:19:34;99863.53;;;24.48;65.71
71299;BME280;59083;47.974;21.722;2023-06-10T11:22:59;99885.66;;;24.89;65.61
71299;BME280;59083;47.974;21.722;2023-06-10T11:29:17;99887.59;;;24.83;65.17
71299;BME280;59083;47.974;21.722;2023-06-10T11:32:20;99877.16;;;25.28;63.15
71299;BME280;59083;47.974;21.722;2023-06-10T11:35:23;99870.00;;;25.13;63.01
71299;BME280;59083;47.974;21.722;2023-06-10T11:38:25;99875.69;;;25.17;62.73
71299;BME280;59083;47.974;21.722;2023-06-10T11:41:28;99871.09;;;25.12;63.54
71299;BME280;59083;47.974;21.722;2023-06-10T11:44:30;99868.16;;;25.08;63.12
71299;BME280;59083;47.974;21.722;2023-06-10T11:47:32;99863.19;;;24.73;61.55
71299;BME280;59083;47.974;21.722;2023-06-10T11:50:34;99858.78;;;24.77;63.99
71299;BME280;59083;47.974;21.722;2023-06-10T11:53:35;99863.13;;;24.59;63.52
71299;BME280;59083;47.974;21.722;2023-06-10T11:56:36;99857.16;;;24.76;63.58
71299;BME280;59083;47.974;21.722;2023-06-10T11:59:37;99859.47;;;25.06;63.08
71299;BME280;59083;47.974;21.722;2023-06-10T12:02:39;99855.63;;;25.07;62.04
71299;BME280;59083;47.974;21.722;2023-06-10T12:05:57;99848.41;;;25.17;60.45
71299;BME280;59083;47.974;21.722;2023-06-10T12:09:01;99839.78;;;25.28;60.20
71299;BME280;59083;47.974;21.722;2023-06-10T12:12:04;99847.41;;;25.77;60.47
71299;BME280;59083;47.974;21.722;2023-06-10T12:15:07;99841.66;;;25.92;58.06
71299;BME280;59083;47.974;21.722;2023-06-10T12:18:21;99832.44;;;25.88;57.72
71299;BME280;59083;47.974;21.722;2023-06-10T12:21:24;99830.81;;;25.87;58.06
71299;BME280;59083;47.974;21.722;2023-06-10T12:24:25;99826.69;;;25.44;59.60
71299;BME280;59083;47.974;21.722;2023-06-10T12:27:27;99841.00;;;25.36;59.68
71299;BME280;59083;47.974;21.722;2023-06-10T12:30:31;99837.91;;;25.24;61.31
71299;BME280;59083;47.974;21.722;2023-06-10T12:33:33;99837.91;;;25.24;60.40
71299;BME280;59083;47.974;21.722;2023-06-10T12:36:35;99837.41;;;24.84;62.64
71299;BME280;59083;47.974;21.722;2023-06-10T12:39:37;99830.47;;;24.73;63.06
71299;BME280;59083;47.974;21.722;2023-06-10T12:42:38;99824.25;;;24.91;62.92
71299;BME280;59083;47.974;21.722;2023-06-10T12:45:42;99833.53;;;24.90;60.62
71299;BME280;59083;47.974;21.722;2023-06-10T12:48:51;99825.87;;;24.92;59.95
71299;BME280;59083;47.974;21.722;2023-06-10T12:51:53;99826.00;;;24.82;60.49
71299;BME280;59083;47.974;21.722;2023-06-10T12:54:55;99818.41;;;24.79;60.31
71299;BME280;59083;47.974;21.722;2023-06-10T12:57:56;99823.44;;;24.91;59.52
71299;BME280;59083;47.974;21.722;2023-06-10T13:00:58;99819.75;;;24.82;60.51
71299;BME280;59083;47.974;21.722;2023-06-10T13:04:00;99817.28;;;24.80;61.73
71299;BME280;59083;47.974;21.722;2023-06-10T13:07:01;99813.75;;;24.80;61.19
71299;BME280;59083;47.974;21.722;2023-06-10T13:10:02;99800.28;;;24.69;61.57
71299;BME280;59083;47.974;21.722;2023-06-10T13:13:04;99797.69;;;24.78;62.02
71299;BME280;59083;47.974;21.722;2023-06-10T13:16:06;99801.84;;;24.94;62.44
71299;BME280;59083;47.974;21.722;2023-06-10T13:19:08;99797.50;;;24.93;61.04
71299;BME280;59083;47.974;21.722;2023-06-10T13:22:09;99802.50;;;25.05;57.99
71299;BME280;59083;47.974;21.722;2023-06-10T13:25:10;99808.78;;;25.05;58.89
71299;BME280;59083;47.974;21.722;2023-06-10T13:28:11;99792.53;;;24.95;59.99
71299;BME280;59083;47.974;21.722;2023-06-10T13:31:13;99800.06;;;25.03;61.20
71299;BME280;59083;47.974;21.722;2023-06-10T13:34:14;99787.34;;;24.99;60.73
71299;BME280;59083;47.974;21.722;2023-06-10T13:37:16;99781.50;;;25.05;59.45
71299;BME280;59083;47.974;21.722;2023-06-10T13:40:19;99790.63;;;24.96;58.68
71299;BME280;59083;47.974;21.722;2023-06-10T13:43:21;99796.09;;;24.96;59.81
71299;BME280;59083;47.974;21.722;2023-06-10T13:46:22;99777.06;;;25.09;60.78
71299;BME280;59083;47.974;21.722;2023-06-10T13:49:24;99776.44;;;25.12;60.86
71299;BME280;59083;47.974;21.722;2023-06-10T13:52:25;99781.91;;;25.12;58.78
71299;BME280;59083;47.974;21.722;2023-06-10T13:55:26;99781.44;;;24.92;60.38
71299;BME280;59083;47.974;21.722;2023-06-10T13:58:27;99774.19;;;24.82;61.21
71299;BME280;59083;47.974;21.722;2023-06-10T14:01:29;99767.28;;;24.90;60.77
71299;BME280;59083;47.974;21.722;2023-06-10T14:04:30;99769.44;;;24.93;59.26
71299;BME280;59083;47.974;21.722;2023-06-10T14:07:31;99764.63;;;25.03;58.69
71299;BME280;59083;47.974;21.722;2023-06-10T14:10:32;99763.06;;;24.97;59.05
71299;BME280;59083;47.974;21.722;2023-06-10T14:13:33;99754.81;;;25.02;59.90
71299;BME280;59083;47.974;21.722;2023-06-10T14:16:35;99757.34;;;25.12;59.68
71299;BME280;59083;47.974;21.722;2023-06-10T14:19:36;99753.28;;;25.29;59.32
71299;BME280;59083;47.974;21.722;2023-06-10T14:22:37;99767.13;;;25.46;58.77
71299;BME280;59083;47.974;21.722;2023-06-10T14:25:38;99773.69;;;25.31;56.60
71299;BME280;59083;47.974;21.722;2023-06-10T14:28:39;99758.81;;;25.24;58.83
71299;BME280;59083;47.974;21.722;2023-06-10T14:31:40;99765.22;;;25.33;59.34
71299;BME280;59083;47.974;21.722;2023-06-10T14:34:42;99764.44;;;25.14;61.04
71299;BME280;59083;47.974;21.722;2023-06-10T14:37:45;99766.00;;;25.01;62.21
71299;BME280;59083;47.974;21.722;2023-06-10T14:40:46;99772.34;;;24.96;61.08
71299;BME280;59083;47.974;21.722;2023-06-10T14:43:48;99775.16;;;24.91;62.79
71299;BME280;59083;47.974;21.722;2023-06-10T14:46:49;99771.69;;;24.86;62.43
71299;BME280;59083;47.974;21.722;2023-06-10T14:49:50;99772.66;;;24.76;62.56
71299;BME280;59083;47.974;21.722;2023-06-10T14:52:51;99770.59;;;24.68;63.14
71299;BME280;59083;47.974;21.722;2023-06-10T14:55:52;99765.37;;;24.72;63.10
71299;BME280;59083;47.974;21.722;2023-06-10T14:58:54;99766.31;;;24.81;63.16
71299;BME280;59083;47.974;21.722;2023-06-10T15:01:55;99774.00;;;24.97;64.55
71299;BME280;59083;47.974;21.722;2023-06-10T15:04:56;99773.44;;;25.14;64.82
71299;BME280;59083;47.974;21.722;2023-06-10T15:07:57;99771.87;;;25.27;65.54
71299;BME280;59083;47.974;21.722;2023-06-10T15:10:58;99767.03;;;24.86;66.65
71299;BME280;59083;47.974;21.722;2023-06-10T15:14:01;99769.34;;;24.60;66.83
71299;BME280;59083;47.974;21.722;2023-06-10T15:17:03;99764.47;;;24.39;65.37
71299;BME280;59083;47.974;21.722;2023-06-10T15:20:05;99764.47;;;23.96;67.14
71299;BME280;59083;47.974;21.722;2023-06-10T15:23:06;99766.78;;;23.84;68.16
71299;BME280;59083;47.974;21.722;2023-06-10T15:26:08;99765.28;;;23.73;68.69
71299;BME280;59083;47.974;21.722;2023-06-10T15:29:10;99755.66;;;23.57;70.02
71299;BME280;59083;47.974;21.722;2023-06-10T15:32:11;99732.91;;;23.42;69.65
71299;BME280;59083;47.974;21.722;2023-06-10T15:35:12;99755.41;;;23.53;69.79
71299;BME280;59083;47.974;21.722;2023-06-10T15:38:13;99760.09;;;23.47;70.19
71299;BME280;59083;47.974;21.722;2023-06-10T15:41:15;99759.81;;;23.49;70.08
71299;BME280;59083;47.974;21.722;2023-06-10T15:44:16;99759.00;;;23.48;70.56
71299;BME280;59083;47.974;21.722;2023-06-10T15:47:18;99770.91;;;23.53;70.03
71299;BME280;59083;47.974;21.722;2023-06-10T15:50:20;99774.75;;;23.52;70.67
71299;BME280;59083;47.974;21.722;2023-06-10T15:53:21;99786.13;;;23.54;70.39
71299;BME280;59083;47.974;21.722;2023-06-10T15:56:22;99810.06;;;23.57;71.72
71299;BME280;59083;47.974;21.722;2023-06-10T15:59:24;99813.13;;;23.45;71.76
71299;BME280;59083;47.974;21.722;2023-06-10T16:02:25;99817.28;;;23.37;72.24
71299;BME280;59083;47.974;21.722;2023-06-10T16:05:27;99809.69;;;23.34;73.63